createdAt,value
2018-07-13T00:00:51.134Z,15.18
2018-07-13T00:03:19.794Z,15.14
2018-07-13T00:05:48.048Z,15.05
2018-07-13T00:14:13.984Z,14.94
2018-07-13T00:16:43.323Z,14.87
2018-07-13T00:22:05.149Z,14.81
2018-07-13T00:24:33.565Z,14.81
2018-07-13T05:29:10.029Z,19.68
2018-07-13T05:31:38.320Z,20.57
2018-07-13T05:34:06.546Z,21.44
2018-07-13T05:36:34.631Z,22.13
2018-07-13T05:39:02.770Z,22.82
2018-07-13T05:41:30.876Z,23.31
2018-07-13T05:43:58.967Z,23.92
2018-07-13T05:46:27.068Z,24.17
2018-07-13T05:48:55.141Z,24.56
2018-07-13T05:51:23.269Z,25.21
2018-07-13T05:53:51.380Z,26.03
2018-07-13T05:56:19.484Z,26.98
2018-07-13T05:58:47.564Z,27.19
2018-07-13T06:01:15.661Z,27.67
2018-07-13T06:03:43.749Z,27.63
2018-07-13T06:06:11.861Z,28.28
2018-07-13T06:08:39.947Z,28.42
2018-07-13T06:11:08.078Z,28.67
2018-07-13T06:13:36.200Z,29.33
2018-07-13T06:16:04.337Z,29.78
2018-07-13T06:18:32.400Z,28.41
2018-07-13T06:21:00.472Z,28.46
2018-07-13T06:23:28.606Z,28.97
2018-07-13T06:25:56.704Z,29.49
2018-07-13T06:28:24.811Z,27.23
2018-07-13T06:30:53.260Z,27.92
2018-07-13T06:33:21.352Z,28.87
2018-07-13T06:35:53.277Z,29.29
2018-07-13T06:38:21.376Z,29.62
2018-07-13T06:40:49.848Z,29.75
2018-07-13T06:43:17.949Z,29.42
2018-07-13T06:45:46.037Z,29.07
2018-07-13T06:48:14.361Z,27.76
2018-07-13T06:50:43.486Z,26.65
2018-07-13T06:53:14.580Z,25.55
2018-07-13T06:55:42.695Z,24.91
2018-07-13T06:58:22.551Z,24.77
2018-07-13T07:00:55.192Z,23.40
2018-07-13T07:03:23.901Z,23.01
2018-07-13T07:06:10.575Z,23.37
2018-07-13T07:08:40.513Z,23.40
2018-07-13T07:13:37.992Z,22.95
2018-07-13T07:16:06.167Z,22.80
2018-07-13T07:18:34.609Z,23.12
2018-07-13T07:21:02.718Z,23.08
2018-07-13T07:23:31.666Z,22.91
2018-07-13T07:26:00.679Z,23.02
2018-07-13T07:28:28.807Z,23.06
2018-07-13T07:30:57.725Z,23.24
2018-07-13T07:36:00.252Z,23.13
2018-07-13T07:38:28.697Z,23.17
2018-07-13T07:40:56.761Z,22.80
2018-07-13T07:43:24.861Z,22.51
2018-07-13T07:48:46.094Z,22.39
2018-07-13T07:51:14.165Z,22.76
2018-07-13T07:53:42.964Z,22.98
2018-07-13T07:56:11.057Z,23.15
2018-07-13T07:58:39.136Z,22.83
2018-07-13T08:01:07.224Z,22.40
2018-07-13T08:03:36.235Z,22.82
2018-07-13T08:06:04.469Z,22.81
2018-07-13T08:08:32.495Z,22.39
2018-07-13T08:11:00.877Z,22.75
2018-07-13T08:13:28.985Z,23.20
2018-07-13T08:15:57.036Z,23.46
2018-07-13T08:18:25.124Z,23.57
2018-07-13T08:20:53.258Z,23.32
2018-07-13T08:23:21.359Z,23.23
2018-07-13T08:25:50.445Z,23.30
2018-07-13T08:28:18.735Z,23.70
2018-07-13T08:30:49.501Z,23.48
2018-07-13T08:33:17.579Z,23.20
2018-07-13T08:35:45.658Z,23.14
2018-07-13T08:38:14.520Z,23.45
2018-07-13T08:40:42.609Z,23.52
2018-07-13T08:43:10.989Z,23.69
2018-07-13T08:45:39.119Z,23.91
2018-07-13T08:48:07.153Z,23.65
2018-07-13T08:50:35.248Z,23.71
2018-07-13T08:53:03.357Z,23.29
2018-07-13T08:55:31.439Z,23.22
2018-07-13T08:57:59.525Z,23.32
2018-07-13T09:00:27.630Z,23.66
2018-07-13T09:02:55.737Z,23.82
2018-07-13T09:05:23.845Z,23.98
2018-07-13T09:07:51.919Z,24.06
2018-07-13T09:10:20.008Z,24.27
2018-07-13T09:12:48.100Z,24.53
2018-07-13T09:15:16.190Z,24.70
2018-07-13T09:17:44.260Z,24.62
2018-07-13T09:20:13.288Z,24.77
2018-07-13T09:22:41.414Z,25.03
2018-07-13T09:25:10.245Z,25.01
2018-07-13T09:27:39.019Z,24.88
2018-07-13T09:30:07.648Z,25.09
2018-07-13T09:32:35.753Z,25.24
2018-07-13T09:35:03.874Z,25.09
2018-07-13T09:37:32.232Z,25.18
2018-07-13T09:40:00.340Z,25.29
2018-07-13T09:42:28.433Z,25.45
2018-07-13T09:44:56.553Z,25.47
2018-07-13T09:47:24.635Z,25.58
2018-07-13T09:49:52.733Z,25.55
2018-07-13T09:52:20.885Z,25.57
2018-07-13T09:54:48.996Z,25.63
2018-07-13T09:57:17.257Z,25.45
2018-07-13T09:59:45.346Z,25.67
2018-07-13T10:02:13.692Z,26.02
2018-07-13T10:04:41.777Z,25.95
2018-07-13T10:07:09.853Z,26.23
2018-07-13T10:09:37.953Z,26.54
2018-07-13T10:12:06.293Z,26.67
2018-07-13T10:14:34.585Z,26.77
2018-07-13T10:17:02.713Z,26.53
2018-07-13T10:19:30.804Z,26.74
2018-07-13T10:21:59.343Z,26.94
2018-07-13T10:24:27.920Z,26.98
2018-07-13T10:26:56.673Z,27.05
2018-07-13T10:29:28.745Z,26.92
2018-07-13T10:31:56.822Z,27.11
2018-07-13T10:34:24.918Z,27.02
2018-07-13T10:36:56.964Z,26.29
2018-07-13T10:39:25.048Z,25.86
2018-07-13T10:41:53.504Z,26.10
2018-07-13T10:44:21.612Z,26.35
2018-07-13T10:46:49.712Z,26.82
2018-07-13T10:49:17.884Z,26.89
2018-07-13T10:51:46.017Z,26.64
2018-07-13T10:54:14.096Z,26.53
2018-07-13T10:56:42.208Z,26.96
2018-07-13T10:59:10.544Z,27.06
2018-07-13T11:01:38.642Z,27.20
2018-07-13T11:04:06.717Z,26.72
2018-07-13T11:06:34.801Z,26.77
2018-07-13T11:09:04.831Z,26.80
2018-07-13T11:11:33.293Z,26.48
2018-07-13T11:14:01.927Z,26.73
2018-07-13T11:16:29.964Z,26.45
2018-07-13T11:18:58.802Z,26.98
2018-07-13T11:21:30.252Z,26.60
2018-07-13T11:23:58.347Z,26.68
2018-07-13T11:26:26.792Z,26.81
2018-07-13T11:28:55.290Z,26.83
2018-07-13T11:31:23.359Z,27.11
2018-07-13T11:33:51.796Z,27.52
2018-07-13T11:36:20.921Z,28.20
2018-07-13T11:38:49.087Z,28.17
2018-07-13T11:41:17.179Z,28.13
2018-07-13T11:43:45.212Z,27.58
2018-07-13T11:46:19.988Z,28.01
2018-07-13T11:48:48.265Z,28.59
2018-07-13T11:51:16.350Z,28.46
2018-07-13T11:53:44.464Z,28.17
2018-07-13T11:56:12.548Z,27.48
2018-07-13T11:58:40.620Z,27.08
2018-07-13T12:01:08.705Z,26.71
2018-07-13T12:03:36.788Z,26.72
2018-07-13T12:06:04.851Z,26.49
2018-07-13T12:08:32.959Z,26.91
2018-07-13T12:11:01.008Z,26.88
2018-07-13T12:13:29.097Z,27.32
2018-07-13T12:15:57.185Z,27.48
2018-07-13T12:18:25.267Z,27.41
2018-07-13T12:20:53.367Z,27.17
2018-07-13T12:23:21.491Z,26.95
2018-07-13T12:25:49.574Z,27.03
2018-07-13T12:28:17.665Z,26.98
2018-07-13T12:30:45.747Z,26.78
2018-07-13T12:33:13.829Z,26.78
2018-07-13T12:35:41.929Z,26.34
2018-07-13T12:38:10.043Z,25.99
2018-07-13T12:40:38.128Z,26.12
2018-07-13T12:43:06.234Z,26.02
2018-07-13T12:45:34.389Z,25.95
2018-07-13T12:48:02.469Z,26.24
2018-07-13T12:50:30.552Z,26.54
2018-07-13T12:52:58.638Z,27.02
2018-07-13T12:55:26.715Z,27.57
2018-07-13T12:57:55.063Z,27.54
2018-07-13T13:00:24.519Z,27.47
2018-07-13T13:03:01.231Z,27.91
2018-07-13T13:05:30.712Z,28.14
2018-07-13T13:08:12.209Z,28.61
2018-07-13T13:10:44.024Z,28.20
2018-07-13T13:13:15.178Z,27.75
2018-07-13T13:15:48.736Z,27.61
2018-07-13T13:18:22.101Z,27.77
2018-07-13T13:24:01.643Z,29.11
2018-07-13T13:26:41.675Z,29.25
2018-07-13T13:29:12.469Z,28.86
2018-07-13T13:31:42.744Z,28.66
2018-07-13T13:34:16.183Z,28.48
2018-07-13T13:36:49.101Z,27.95
2018-07-13T13:39:29.729Z,27.37
2018-07-13T13:41:57.800Z,27.25
2018-07-13T13:44:25.904Z,27.31
2018-07-13T13:49:59.342Z,27.22
2018-07-13T13:52:27.778Z,26.97
2018-07-13T13:54:56.510Z,27.02
2018-07-13T13:57:24.597Z,26.85
2018-07-13T13:59:52.698Z,27.09
2018-07-13T14:02:21.050Z,27.23
2018-07-13T14:04:49.228Z,27.11
2018-07-13T14:07:17.299Z,26.78
2018-07-13T14:09:45.365Z,26.71
2018-07-13T14:12:13.745Z,26.62
2018-07-13T14:14:41.800Z,26.88
2018-07-13T14:17:09.844Z,27.14
2018-07-13T14:19:37.942Z,27.45
2018-07-13T14:22:06.035Z,27.67
2018-07-13T14:24:34.113Z,27.60
2018-07-13T14:27:02.232Z,27.86
2018-07-13T14:29:30.300Z,28.45
2018-07-13T14:31:58.395Z,28.88
2018-07-13T14:34:26.479Z,29.10
2018-07-13T14:36:54.555Z,29.42
2018-07-13T14:39:22.631Z,29.81
2018-07-13T14:41:50.717Z,29.61
2018-07-13T14:44:18.775Z,28.69
2018-07-13T14:46:46.906Z,28.32
2018-07-13T14:49:14.932Z,28.06
2018-07-13T14:51:43.048Z,27.85
2018-07-13T14:54:11.129Z,27.69
2018-07-13T14:56:39.225Z,27.41
2018-07-13T14:59:07.283Z,27.46
2018-07-13T15:01:35.376Z,27.33
2018-07-13T15:04:04.568Z,27.10
2018-07-13T15:06:32.862Z,27.14
2018-07-13T15:09:00.693Z,27.13
2018-07-13T15:11:29.556Z,27.08
2018-07-13T15:13:57.641Z,27.11
2018-07-13T15:16:25.712Z,27.52
2018-07-13T15:18:53.815Z,27.78
2018-07-13T15:21:21.892Z,28.13
2018-07-13T15:23:49.972Z,27.75
2018-07-13T15:26:18.075Z,27.29
2018-07-13T15:28:46.147Z,27.15
2018-07-13T15:31:15.108Z,27.13
2018-07-13T15:33:43.184Z,27.00
2018-07-13T15:36:11.257Z,26.95
2018-07-13T15:38:39.404Z,26.99
2018-07-13T15:41:07.494Z,27.13
2018-07-13T15:43:35.608Z,27.55
2018-07-13T15:46:03.749Z,27.53
2018-07-13T15:48:31.831Z,27.48
2018-07-13T15:50:59.908Z,27.47
2018-07-13T15:53:28.001Z,27.63
2018-07-13T15:55:57.605Z,27.70
2018-07-13T15:58:26.335Z,27.25
2018-07-13T16:00:54.755Z,27.06
2018-07-13T16:03:22.933Z,27.04
2018-07-13T16:05:51.006Z,27.39
2018-07-13T16:08:19.301Z,28.01
2018-07-13T16:10:47.471Z,28.35
2018-07-13T16:13:15.601Z,28.63
2018-07-13T16:15:43.660Z,28.88
2018-07-13T16:18:11.743Z,28.74
2018-07-13T16:20:39.917Z,28.46
2018-07-13T16:23:08.074Z,28.40
2018-07-13T16:25:36.157Z,28.30
2018-07-13T16:28:04.261Z,28.31
2018-07-13T16:30:33.194Z,28.27
2018-07-13T16:33:01.301Z,28.27
2018-07-13T16:35:29.408Z,28.31
2018-07-13T16:37:57.483Z,28.66
2018-07-13T16:40:25.577Z,29.09
2018-07-13T16:42:53.676Z,28.65
2018-07-13T16:45:21.767Z,28.42
2018-07-13T16:47:49.853Z,28.13
2018-07-13T16:50:17.936Z,28.38
2018-07-13T16:52:46.047Z,28.45
2018-07-13T16:55:14.143Z,28.48
2018-07-13T16:57:42.224Z,28.45
2018-07-13T17:00:10.371Z,28.13
2018-07-13T17:02:38.451Z,28.33
2018-07-13T17:05:06.576Z,28.25
2018-07-13T17:07:34.984Z,28.21
2018-07-13T17:10:03.089Z,28.06
2018-07-13T17:12:31.168Z,28.14
2018-07-13T17:14:59.434Z,27.83
2018-07-13T17:17:27.516Z,28.21
2018-07-13T17:19:55.603Z,28.26
2018-07-13T17:22:24.330Z,28.06
2018-07-13T17:24:52.410Z,28.19
2018-07-13T17:27:20.486Z,28.33
2018-07-13T17:29:48.594Z,28.05
2018-07-13T17:32:16.664Z,27.89
2018-07-13T17:34:44.774Z,28.37
2018-07-13T17:37:13.834Z,28.15
2018-07-13T17:39:41.938Z,27.64
2018-07-13T17:42:10.320Z,27.52
2018-07-13T17:44:38.417Z,27.32
2018-07-13T17:47:06.563Z,27.17
2018-07-13T17:49:34.631Z,27.11
2018-07-13T17:52:02.699Z,27.13
2018-07-13T17:54:30.880Z,27.14
2018-07-13T17:56:58.971Z,27.31
2018-07-13T17:59:27.083Z,27.39
2018-07-13T18:01:55.151Z,27.21
2018-07-13T18:04:23.253Z,27.17
2018-07-13T18:06:51.650Z,26.92
2018-07-13T18:09:19.705Z,26.79
2018-07-13T18:11:47.805Z,26.78
2018-07-13T18:14:15.889Z,26.75
2018-07-13T18:16:43.981Z,26.69
2018-07-13T18:19:12.071Z,26.61
2018-07-13T18:21:40.203Z,26.57
2018-07-13T18:24:08.238Z,26.53
2018-07-13T18:26:36.335Z,26.44
2018-07-13T18:29:04.471Z,26.40
2018-07-13T18:31:32.549Z,26.34
2018-07-13T18:34:00.636Z,26.32
2018-07-13T18:36:28.725Z,26.22
2018-07-13T18:38:56.808Z,26.10
2018-07-13T18:41:24.879Z,26.06
2018-07-13T18:43:52.948Z,25.95
2018-07-13T18:46:21.025Z,25.87
2018-07-13T18:48:49.093Z,25.74
2018-07-13T18:51:17.215Z,25.64
2018-07-13T18:53:45.402Z,25.54
2018-07-13T18:56:13.489Z,25.51
2018-07-13T18:58:41.565Z,25.36
2018-07-13T19:01:09.637Z,25.28
2018-07-13T19:03:38.492Z,25.21
2018-07-13T19:06:06.593Z,25.07
2018-07-13T19:08:34.669Z,24.94
2018-07-13T19:11:02.791Z,24.81
2018-07-13T19:13:30.982Z,24.76
2018-07-13T19:15:58.976Z,24.70
2018-07-13T19:18:27.061Z,24.54
2018-07-13T19:20:55.176Z,24.43
2018-07-13T19:23:23.253Z,24.31
2018-07-13T19:25:51.328Z,24.25
2018-07-13T19:28:19.422Z,24.19
2018-07-13T19:30:47.615Z,24.15
2018-07-13T19:33:15.588Z,24.10
2018-07-13T19:35:43.669Z,24.03
2018-07-13T19:38:11.748Z,23.99
2018-07-13T19:40:39.844Z,23.88
2018-07-13T19:43:07.936Z,23.64
2018-07-13T19:45:36.263Z,23.41
2018-07-13T19:48:04.343Z,23.33
2018-07-13T19:50:32.440Z,23.34
2018-07-13T19:53:00.524Z,23.32
2018-07-13T19:55:28.632Z,23.23
2018-07-13T19:57:56.713Z,23.08
2018-07-13T20:00:25.105Z,23.02
2018-07-13T20:02:53.212Z,22.99
2018-07-13T20:05:21.260Z,23.03
2018-07-13T20:07:49.348Z,22.96
2018-07-13T20:10:17.432Z,22.84
2018-07-13T22:13:08.063Z,20.70
2018-07-13T22:15:36.060Z,20.61
2018-07-13T22:18:04.370Z,20.48
2018-07-13T22:20:32.436Z,20.44
2018-07-13T22:23:00.555Z,20.38
2018-07-13T22:25:28.602Z,20.29
2018-07-13T22:27:56.684Z,20.27
2018-07-13T22:30:24.763Z,20.13
2018-07-13T22:32:52.839Z,20.01
2018-07-13T22:35:20.907Z,19.90
2018-07-13T22:37:48.976Z,19.74
2018-07-13T22:40:17.044Z,19.62
2018-07-13T22:42:45.108Z,19.43
2018-07-13T22:45:13.172Z,19.43
2018-07-13T22:47:41.269Z,19.50
2018-07-13T22:50:09.337Z,19.41
2018-07-13T22:52:37.459Z,19.40
2018-07-13T22:55:05.688Z,19.34
2018-07-13T22:57:33.729Z,19.23
2018-07-13T23:00:01.821Z,19.18
2018-07-13T23:02:29.896Z,19.08
2018-07-13T23:04:57.971Z,19.21
2018-07-13T23:07:26.040Z,19.15
2018-07-13T23:09:54.116Z,19.05
2018-07-13T23:12:22.191Z,18.99
2018-07-13T23:14:50.269Z,18.87
2018-07-13T23:17:18.325Z,18.83
2018-07-13T23:19:46.407Z,18.77
2018-07-13T23:22:14.469Z,18.78
2018-07-13T23:24:42.548Z,18.87
2018-07-13T23:27:10.652Z,18.82
2018-07-13T23:29:38.773Z,18.65
2018-07-13T23:32:06.833Z,18.78
2018-07-13T23:34:34.918Z,18.82
2018-07-13T23:37:02.988Z,18.72
2018-07-13T23:39:31.075Z,18.68
2018-07-13T23:41:59.190Z,18.49
2018-07-13T23:44:27.256Z,18.48
2018-07-13T23:46:55.328Z,18.44
2018-07-13T23:49:23.440Z,18.37
2018-07-13T23:51:51.499Z,18.39
2018-07-13T23:54:19.585Z,18.34
2018-07-13T23:56:47.714Z,18.24
2018-07-13T23:59:16.464Z,18.23
